Time;durP1;ratioP1;P1;durP2;ratioP2;P2;SDS_P1;SDS_P2;PMS_P1;PMS_P2;Temp;Humidity;BMP_temperature;BMP_pressure;BME280_temperature;BME280_humidity;BME280_pressure;Samples;Min_cycle;Max_cycle;Signal;HPM_P1;HPM_P2
2022/09/21 00:00:18;;;;;;;6.82;4.95;;;;;;;10.04;93.58;102428.78;6089272;23;20006;-84
2022/09/21 00:02:43;;;;;;;11.25;5.40;;;;;;;10.02;93.72;102433.25;6062935;23;20064;-84
2022/09/21 00:05:09;;;;;;;7.97;4.75;;;;;;;9.98;93.93;102432.44;6089743;23;20429;-84
2022/09/21 00:07:34;;;;;;;8.40;4.82;;;;;;;9.94;94.24;102438.75;6089204;23;20002;-84
2022/09/21 00:09:59;;;;;;;6.57;4.90;;;;;;;9.90;94.24;102433.53;6064562;23;20010;-84
2022/09/21 00:12:25;;;;;;;6.15;4.82;;;;;;;9.85;94.36;102428.31;6089520;23;20002;-84
2022/09/21 00:14:50;;;;;;;6.70;4.72;;;;;;;9.77;94.48;102424.09;6089333;23;20010;-83
2022/09/21 00:17:15;;;;;;;6.80;4.75;;;;;;;9.76;95.35;102427.66;6088547;23;20006;-83
2022/09/21 00:19:41;;;;;;;9.43;4.57;;;;;;;9.70;94.96;102428.69;6089390;23;20013;-83
2022/09/21 00:22:06;;;;;;;6.82;5.00;;;;;;;9.70;95.21;102420.72;6089934;23;20013;-83
2022/09/21 00:24:33;;;;;;;7.63;5.03;;;;;;;9.65;95.26;102423.44;6089209;23;20010;-83
2022/09/21 00:26:59;;;;;;;10.30;5.32;;;;;;;9.61;95.78;102428.84;6089009;23;20021;-83
2022/09/21 00:29:24;;;;;;;8.07;4.85;;;;;;;9.56;95.51;102425.44;6089005;23;20010;-83
2022/09/21 00:31:50;;;;;;;10.52;5.68;;;;;;;9.50;95.73;102425.56;6089710;23;20010;-83
2022/09/21 00:34:15;;;;;;;7.90;5.35;;;;;;;9.45;96.23;102433.66;6089478;23;20397;-82
2022/09/21 00:36:40;;;;;;;9.35;5.57;;;;;;;9.37;96.08;102430.28;6093228;23;20006;-82
2022/09/21 00:39:06;;;;;;;7.07;5.20;;;;;;;9.28;96.24;102430.44;6103928;23;20041;-83
2022/09/21 00:41:32;;;;;;;10.10;5.55;;;;;;;9.23;96.52;102430.53;6105239;23;20006;-83
2022/09/21 00:44:22;;;;;;;8.48;5.68;;;;;;;9.16;96.31;102428.91;6105425;23;20014;-83
2022/09/21 00:46:49;;;;;;;8.30;5.15;;;;;;;9.07;96.36;102435.28;6094395;23;20061;-82
2022/09/21 00:49:15;;;;;;;10.73;5.00;;;;;;;9.02;96.78;102430.94;6091058;23;20024;-83
2022/09/21 00:51:41;;;;;;;9.70;5.10;;;;;;;8.94;96.67;102436.41;6065277;23;20766;-82
2022/09/21 00:54:13;;;;;;;6.90;5.72;;;;;;;8.87;97.28;102430.34;6092299;23;20034;-82
2022/09/21 00:56:41;;;;;;;10.20;5.60;;;;;;;8.83;97.81;102436.63;6066227;23;20002;-83
2022/09/21 00:59:08;;;;;;;9.70;6.38;;;;;;;8.79;98.12;102432.25;6093222;23;20006;-83
2022/09/21 01:01:35;;;;;;;9.77;6.00;;;;;;;8.75;98.38;102435.88;6093209;23;20101;-83
2022/09/21 01:04:01;;;;;;;7.45;5.68;;;;;;;8.70;98.40;102440.41;6066168;23;20010;-83
2022/09/21 01:06:27;;;;;;;10.43;6.10;;;;;;;8.67;98.21;102445.75;6090493;23;20042;-83
2022/09/21 01:08:57;;;;;;;11.75;5.60;;;;;;;8.59;98.45;102429.94;6090274;23;20006;-83
2022/09/21 01:11:27;;;;;;;10.15;5.72;;;;;;;8.55;98.65;102438.00;6090178;23;20033;-82
2022/09/21 01:14:20;;;;;;;9.18;6.38;;;;;;;8.58;98.43;102440.59;6089378;23;20010;-83
2022/09/21 01:17:13;;;;;;;10.27;5.40;;;;;;;8.59;98.51;102445.00;6089669;23;20065;-82
2022/09/21 01:20:10;;;;;;;9.18;5.40;;;;;;;8.58;98.10;102441.47;6100479;23;20025;-82
2022/09/21 01:23:03;;;;;;;9.70;6.07;;;;;;;8.58;98.40;102445.91;6117356;23;19998;-83
2022/09/21 01:25:40;;;;;;;8.20;5.95;;;;;;;8.59;98.58;102448.53;6117026;23;20005;-82
2022/09/21 01:28:21;;;;;;;8.98;5.65;;;;;;;8.55;98.95;102438.00;6114971;23;20009;-83
2022/09/21 01:30:51;;;;;;;9.77;5.75;;;;;;;8.58;98.90;102444.13;6091680;23;19998;-83
2022/09/21 01:33:29;;;;;;;7.95;5.95;;;;;;;8.59;99.35;102437.03;6114617;23;20093;-84
2022/09/21 01:36:00;;;;;;;8.38;5.40;;;;;;;8.59;99.12;102439.69;6076642;23;20014;-83
2022/09/21 01:38:30;;;;;;;11.48;6.00;;;;;;;8.54;99.52;102442.44;6090700;23;20003;-83
2022/09/21 01:41:01;;;;;;;6.75;5.60;;;;;;;8.56;99.24;102442.41;6092872;23;20084;-83
2022/09/21 01:43:33;;;;;;;9.77;6.10;;;;;;;8.54;99.26;102433.59;6093306;23;19998;-83
2022/09/21 01:46:02;;;;;;;8.65;5.97;;;;;;;8.56;99.46;102445.06;6093749;23;20017;-83
2022/09/21 01:48:35;;;;;;;8.88;5.75;;;;;;;8.52;99.26;102438.91;6093116;23;20090;-83
2022/09/21 01:51:06;;;;;;;8.18;5.72;;;;;;;8.51;99.24;102438.94;6093369;23;20102;-83
2022/09/21 01:54:00;;;;;;;8.40;5.90;;;;;;;8.50;99.49;102437.22;6092252;23;19999;-83
2022/09/21 01:56:34;;;;;;;11.05;6.05;;;;;;;8.48;99.76;102443.44;6067210;23;20045;-83
2022/09/21 01:59:13;;;;;;;6.38;5.25;;;;;;;8.46;99.60;102439.91;6093091;23;20091;-83
2022/09/21 02:01:46;;;;;;;8.20;6.05;;;;;;;8.44;99.75;102431.09;6092235;23;20013;-83
2022/09/21 02:04:12;;;;;;;8.55;5.57;;;;;;;8.42;99.43;102432.91;6093410;23;20010;-83
2022/09/21 02:06:42;;;;;;;7.97;5.50;;;;;;;8.40;99.34;102436.47;6092381;23;20038;-84
2022/09/21 02:09:09;;;;;;;9.05;6.03;;;;;;;8.42;99.68;102435.56;6094736;23;20081;-83
2022/09/21 02:11:41;;;;;;;12.95;6.15;;;;;;;8.41;99.82;102430.28;6093213;23;20020;-83
2022/09/21 02:14:12;;;;;;;9.05;6.03;;;;;;;8.36;99.72;102424.13;6092472;23;20002;-83
2022/09/21 02:17:06;;;;;;;11.40;6.60;;;;;;;8.38;99.86;102433.84;6090304;23;20011;-83
2022/09/21 02:19:54;;;;;;;9.52;6.10;;;;;;;8.33;99.98;102432.16;6091038;23;20010;-84
2022/09/21 02:22:34;;;;;;;6.32;5.60;;;;;;;8.30;100.00;102432.19;6091036;23;20018;-83
2022/09/21 02:25:09;;;;;;;9.40;6.20;;;;;;;8.23;100.00;102426.09;6091266;23;20010;-83
2022/09/21 02:27:51;;;;;;;9.25;6.28;;;;;;;8.22;100.00;102434.94;6091820;23;20006;-83
2022/09/21 02:30:23;;;;;;;8.23;6.20;;;;;;;8.15;100.00;102428.88;6091675;23;20069;-83
2022/09/21 02:33:08;;;;;;;12.70;6.70;;;;;;;8.11;100.00;102434.22;6091829;23;20034;-83
2022/09/21 02:36:02;;;;;;;9.88;6.28;;;;;;;8.07;100.00;102433.44;6091356;23;20007;-83
2022/09/21 02:38:40;;;;;;;8.70;6.38;;;;;;;8.03;100.00;102423.78;6091172;23;20017;-83
2022/09/21 02:41:15;;;;;;;9.77;6.10;;;;;;;7.94;100.00;102419.47;6065830;23;20062;-83
2022/09/21 02:43:46;;;;;;;9.77;6.20;;;;;;;7.94;100.00;102429.19;6090874;23;20029;-83
2022/09/21 02:46:20;;;;;;;10.85;6.93;;;;;;;7.90;100.00;102427.47;6089049;23;20036;-83
2022/09/21 02:48:53;;;;;;;8.65;6.22;;;;;;;7.86;100.00;102426.66;6091420;23;20002;-84
2022/09/21 02:51:24;;;;;;;6.93;6.07;;;;;;;7.82;100.00;102424.09;6090875;23;20048;-83
2022/09/21 02:53:52;;;;;;;6.93;6.03;;;;;;;7.72;100.00;102412.72;6091006;23;20002;-82
2022/09/21 02:56:18;;;;;;;10.57;7.03;;;;;;;7.70;100.00;102430.44;6089654;23;20013;-83
2022/09/21 02:58:49;;;;;;;11.73;6.40;;;;;;;7.60;100.00;102411.09;6065587;23;20007;-82
2022/09/21 03:01:16;;;;;;;9.20;6.38;;;;;;;7.63;100.00;102428.75;6090223;23;20006;-83
2022/09/21 03:03:41;;;;;;;8.38;6.30;;;;;;;7.62;100.00;102421.69;6091300;23;20038;-83
2022/09/21 03:06:07;;;;;;;9.20;5.80;;;;;;;7.59;100.00;102429.69;6089809;23;20010;-82
2022/09/21 03:08:32;;;;;;;8.75;6.28;;;;;;;7.56;100.00;102424.41;6090471;23;20090;-82
2022/09/21 03:10:57;;;;;;;7.90;6.18;;;;;;;7.44;100.00;102413.09;6091134;23;20007;-82
2022/09/21 03:13:23;;;;;;;9.15;5.60;;;;;;;7.49;100.00;102426.28;6089961;23;20037;-83
2022/09/21 03:15:49;;;;;;;8.48;5.65;;;;;;;7.41;100.00;102426.38;6090071;23;20437;-83
2022/09/21 03:18:14;;;;;;;8.80;6.05;;;;;;;7.39;100.00;102436.09;6090629;23;20002;-82
2022/09/21 03:20:46;;;;;;;9.95;6.60;;;;;;;7.36;100.00;102430.88;6091142;23;20207;-83
2022/09/21 03:23:11;;;;;;;7.80;6.00;;;;;;;7.34;100.00;102435.28;6090753;23;20038;-82
2022/09/21 03:25:37;;;;;;;7.78;5.72;;;;;;;7.32;100.00;102430.94;6093264;23;20324;-82
2022/09/21 03:28:03;;;;;;;7.85;5.95;;;;;;;7.23;100.00;102432.78;6100992;23;20029;-83
2022/09/21 03:30:30;;;;;;;10.90;6.22;;;;;;;7.18;100.00;102436.34;6101962;23;20006;-83
2022/09/21 03:32:56;;;;;;;9.15;6.13;;;;;;;7.17;100.00;102438.13;6101510;23;20032;-82
2022/09/21 03:35:24;;;;;;;9.07;6.20;;;;;;;7.16;100.00;102438.16;6095463;23;20010;-82
2022/09/21 03:37:49;;;;;;;8.77;6.43;;;;;;;7.10;100.00;102432.91;6093803;23;20256;-82
2022/09/21 03:40:16;;;;;;;9.13;6.00;;;;;;;7.05;100.00;102438.25;6093669;23;20522;-82
2022/09/21 03:42:42;;;;;;;8.07;6.10;;;;;;;7.04;100.00;102446.25;6092654;23;20417;-82
2022/09/21 03:45:08;;;;;;;6.50;5.85;;;;;;;6.95;100.00;102434.84;6092491;23;20014;-82
2022/09/21 03:47:34;;;;;;;8.73;6.03;;;;;;;6.95;100.00;102448.09;6093815;23;20057;-84
2022/09/21 03:50:00;;;;;;;8.52;5.68;;;;;;;6.98;100.00;102452.44;6068578;23;20013;-82
2022/09/21 03:52:25;;;;;;;8.20;6.10;;;;;;;6.98;100.00;102457.75;6092002;23;20003;-83
2022/09/21 03:54:51;;;;;;;8.43;6.45;;;;;;;6.99;100.00;102451.59;6092036;23;20302;-83
2022/09/21 03:57:16;;;;;;;9.23;5.82;;;;;;;6.97;100.00;102456.88;6091057;23;20050;-83
2022/09/21 03:59:42;;;;;;;8.10;5.75;;;;;;;7.02;100.00;102450.66;6100175;23;20006;-82
2022/09/21 04:02:07;;;;;;;10.55;6.15;;;;;;;6.99;100.00;102448.94;6107919;23;20010;-83
2022/09/21 04:04:33;;;;;;;11.07;6.57;;;;;;;6.92;100.00;102449.88;6109047;23;20013;-82
2022/09/21 04:06:58;;;;;;;8.10;6.57;;;;;;;6.96;100.00;102463.06;6107184;23;20025;-83
2022/09/21 04:09:24;;;;;;;12.05;6.68;;;;;;;6.96;100.00;102457.78;6093435;23;20079;-83
2022/09/21 04:11:52;;;;;;;8.23;6.28;;;;;;;6.95;100.00;102452.50;6117854;23;20341;-83
2022/09/21 04:14:18;;;;;;;9.18;6.80;;;;;;;6.95;100.00;102450.72;6115590;23;20018;-83
2022/09/21 04:16:43;;;;;;;9.70;6.15;;;;;;;6.88;100.00;102438.44;6099574;23;20006;-83
2022/09/21 04:19:09;;;;;;;9.65;6.93;;;;;;;6.94;100.00;102446.34;6094174;23;20344;-83
2022/09/21 04:21:34;;;;;;;8.20;6.68;;;;;;;6.94;100.00;102446.34;6094751;23;20010;-83
2022/09/21 04:24:00;;;;;;;10.93;6.75;;;;;;;7.01;100.00;102449.78;6094898;23;20034;-83
2022/09/21 04:26:32;;;;;;;9.30;6.50;;;;;;;7.02;100.00;102454.19;6093354;23;20081;-83
2022/09/21 04:28:58;;;;;;;9.88;6.35;;;;;;;7.03;100.00;102452.44;6067285;23;20002;-83
2022/09/21 04:31:24;;;;;;;10.90;6.57;;;;;;;7.03;100.00;102463.03;6092540;23;20017;-83
2022/09/21 04:33:51;;;;;;;10.25;6.70;;;;;;;7.07;100.00;102462.09;6092267;23;20009;-83
2022/09/21 04:36:17;;;;;;;13.10;7.70;;;;;;;7.07;100.00;102455.03;6091190;23;20006;-83
2022/09/21 04:38:43;;;;;;;9.80;6.43;;;;;;;7.11;100.00;102455.88;6091238;23;20009;-83
2022/09/21 04:41:09;;;;;;;9.80;6.65;;;;;;;7.10;100.00;102462.91;6091195;23;20006;-83
2022/09/21 04:43:34;;;;;;;8.02;6.53;;;;;;;7.13;100.00;102460.25;6065111;23;20501;-83
2022/09/21 04:46:09;;;;;;;9.70;6.65;;;;;;;7.16;100.00;102467.28;6064683;23;20326;-83
2022/09/21 04:48:34;;;;;;;10.80;6.32;;;;;;;7.13;100.00;102459.38;6090634;23;20344;-83
2022/09/21 04:51:01;;;;;;;10.60;7.07;;;;;;;7.16;100.00;102467.28;6090523;23;20040;-83
2022/09/21 04:53:27;;;;;;;10.30;6.88;;;;;;;7.17;100.00;102467.25;6089505;23;20081;-83
2022/09/21 04:55:53;;;;;;;8.38;6.22;;;;;;;7.15;100.00;102465.53;6087038;23;20006;-83
2022/09/21 04:58:18;;;;;;;11.20;7.05;;;;;;;7.20;100.00;102463.72;6087577;23;20012;-83
2022/09/21 05:00:43;;;;;;;11.98;7.20;;;;;;;7.22;100.00;102464.56;6088024;23;20010;-83
2022/09/21 05:03:08;;;;;;;11.05;6.70;;;;;;;7.20;100.00;102467.25;6086530;23;20330;-83
2022/09/21 05:05:34;;;;;;;10.45;7.45;;;;;;;7.22;100.00;102467.22;6086564;23;20018;-83
2022/09/21 05:07:59;;;;;;;10.18;7.72;;;;;;;7.16;100.00;102459.34;6086003;23;20010;-83
2022/09/21 05:10:24;;;;;;;11.45;8.05;;;;;;;7.26;100.00;102468.94;6060129;23;20017;-83
2022/09/21 05:12:51;;;;;;;9.98;7.22;;;;;;;7.23;100.00;102463.66;6061182;23;20069;-83
2022/09/21 05:15:17;;;;;;;10.48;7.85;;;;;;;7.26;100.00;102468.94;6087344;23;20010;-83
2022/09/21 05:17:43;;;;;;;11.15;8.23;;;;;;;7.28;100.00;102468.94;6060182;23;20014;-83
2022/09/21 05:20:10;;;;;;;9.85;8.30;;;;;;;7.27;100.00;102465.38;6085749;23;20006;-83
2022/09/21 05:22:35;;;;;;;10.50;8.38;;;;;;;7.33;100.00;102477.69;6061275;23;20044;-82
2022/09/21 05:25:01;;;;;;;13.48;8.32;;;;;;;7.35;100.00;102476.75;6086039;23;20263;-83
2022/09/21 05:27:26;;;;;;;9.10;7.95;;;;;;;7.36;100.00;102481.19;6085765;23;20081;-83
2022/09/21 05:29:52;;;;;;;10.80;7.78;;;;;;;7.33;100.00;102473.28;6058913;23;20037;-83
2022/09/21 05:32:32;;;;;;;10.52;7.75;;;;;;;7.38;100.00;102481.16;6087988;23;20006;-85
2022/09/21 05:35:16;;;;;;;10.32;8.18;;;;;;;7.44;100.00;102487.28;6062803;23;20021;-84
2022/09/21 05:37:47;;;;;;;9.50;8.13;;;;;;;7.45;100.00;102490.81;6089462;23;20011;-83
2022/09/21 05:40:13;;;;;;;12.27;8.52;;;;;;;7.48;100.00;102488.09;6088902;23;20405;-83
2022/09/21 05:42:39;;;;;;;12.07;8.73;;;;;;;7.49;100.00;102498.69;6089413;23;20067;-83
2022/09/21 05:45:05;;;;;;;13.85;8.88;;;;;;;7.52;100.00;102487.16;6087876;23;20014;-83
2022/09/21 05:47:33;;;;;;;12.75;8.32;;;;;;;7.54;100.00;102496.00;6089138;23;20009;-83
2022/09/21 05:50:04;;;;;;;12.57;9.18;;;;;;;7.55;100.00;102499.50;6090284;23;20078;-83
2022/09/21 05:52:46;;;;;;;11.60;8.55;;;;;;;7.56;100.00;102493.31;6088559;23;20010;-83
2022/09/21 05:55:39;;;;;;;11.57;7.75;;;;;;;7.58;100.00;102489.75;6089351;23;20025;-83
2022/09/21 05:58:23;;;;;;;11.02;8.27;;;;;;;7.59;100.00;102495.94;6088082;23;20030;-83
2022/09/21 06:01:16;;;;;;;11.75;9.20;;;;;;;7.63;100.00;102500.31;6089789;23;20003;-83
2022/09/21 06:03:42;;;;;;;12.65;9.57;;;;;;;7.66;100.00;102505.56;6090726;23;20015;-83
2022/09/21 06:06:08;;;;;;;14.50;8.88;;;;;;;7.72;100.00;102513.44;6089682;23;20014;-83
2022/09/21 06:08:34;;;;;;;14.57;9.27;;;;;;;7.74;100.00;102509.00;6091687;23;20010;-83
2022/09/21 06:10:59;;;;;;;11.48;9.23;;;;;;;7.79;100.00;102512.47;6070571;23;20010;-83
2022/09/21 06:13:25;;;;;;;14.85;9.27;;;;;;;7.81;100.00;102512.44;6095756;23;20037;-83
2022/09/21 06:15:51;;;;;;;13.02;9.27;;;;;;;7.81;100.00;102515.09;6096692;23;20060;-83
2022/09/21 06:18:16;;;;;;;13.73;8.77;;;;;;;7.86;100.00;102513.25;6090177;23;20085;-81
2022/09/21 06:20:42;;;;;;;16.63;10.35;;;;;;;7.90;100.00;102513.22;6092583;23;20010;-82
2022/09/21 06:23:09;;;;;;;15.18;9.90;;;;;;;7.96;100.00;102520.19;6068369;23;20002;-82
2022/09/21 06:25:35;;;;;;;12.70;10.02;;;;;;;8.02;100.00;102519.22;6095011;23;20037;-85
2022/09/21 06:28:05;;;;;;;14.52;9.90;;;;;;;8.08;100.00;102516.50;6098357;23;20083;-83
2022/09/21 06:30:33;;;;;;;12.73;10.00;;;;;;;8.14;100.00;102508.47;6092618;23;20014;-86
2022/09/21 06:33:00;;;;;;;15.18;10.73;;;;;;;8.31;100.00;102516.16;6092271;23;19998;-86
2022/09/21 06:35:27;;;;;;;16.25;10.50;;;;;;;8.43;100.00;102516.91;6068222;23;20017;-85
2022/09/21 06:37:56;;;;;;;15.35;10.38;;;;;;;8.58;100.00;102517.56;6101133;23;20018;-86
2022/09/21 06:40:21;;;;;;;14.05;10.23;;;;;;;8.73;100.00;102519.97;6098851;23;20417;-86
2022/09/21 06:42:47;;;;;;;14.30;9.48;;;;;;;8.85;100.00;102517.09;6099448;23;20013;-83
2022/09/21 06:45:12;;;;;;;13.80;10.65;;;;;;;8.97;100.00;102514.25;6087787;23;20011;-84
2022/09/21 06:47:37;;;;;;;12.60;10.05;;;;;;;9.17;100.00;102513.88;6112852;23;20007;-85
2022/09/21 06:50:03;;;;;;;12.40;9.15;;;;;;;9.33;99.73;102509.16;6090524;23;20009;-84
2022/09/21 06:52:28;;;;;;;17.13;10.00;;;;;;;9.47;99.38;102517.75;6099896;23;20298;-84
2022/09/21 06:54:53;;;;;;;13.80;9.57;;;;;;;9.54;99.08;102507.88;6092822;23;20002;-85
2022/09/21 06:57:19;;;;;;;12.38;9.93;;;;;;;9.82;98.09;102502.84;6068560;23;20034;-83
2022/09/21 06:59:44;;;;;;;12.90;10.45;;;;;;;10.19;96.62;102502.03;6095189;23;20029;-85
2022/09/21 07:02:11;;;;;;;12.55;8.82;;;;;;;10.51;94.18;102513.78;6096756;23;20045;-85
2022/09/21 07:04:36;;;;;;;11.98;8.80;;;;;;;10.89;92.86;102507.50;6093500;23;20041;-83
2022/09/21 07:07:02;;;;;;;10.90;8.13;;;;;;;11.17;91.10;102508.50;6091701;23;20006;-85
2022/09/21 07:09:27;;;;;;;12.00;7.63;;;;;;;11.43;89.05;102518.47;6092091;23;20348;-85
2022/09/21 07:11:53;;;;;;;9.55;7.70;;;;;;;11.62;86.89;102513.50;6092806;23;20591;-85
2022/09/21 07:14:19;;;;;;;12.63;8.63;;;;;;;11.62;85.49;102517.94;6091794;23;20006;-85
2022/09/21 07:16:45;;;;;;;12.07;8.13;;;;;;;11.40;85.84;102523.00;6091521;23;20038;-85
2022/09/21 07:19:10;;;;;;;10.25;7.28;;;;;;;11.22;86.77;102513.72;6091366;23;20377;-86
2022/09/21 07:21:35;;;;;;;13.95;8.60;;;;;;;11.10;86.87;102519.38;6091711;23;20006;-85
2022/09/21 07:24:01;;;;;;;12.25;8.45;;;;;;;10.97;87.74;102519.69;6091512;23;20002;-84
2022/09/21 07:26:26;;;;;;;12.90;8.65;;;;;;;10.82;88.19;102516.53;6090937;23;20571;-86
2022/09/21 07:28:51;;;;;;;12.90;8.82;;;;;;;11.13;89.15;102517.50;6090788;23;20010;-85
2022/09/21 07:31:17;;;;;;;11.32;8.13;;;;;;;11.53;86.40;102518.19;6091454;23;20045;-88
2022/09/21 07:33:45;;;;;;;12.05;7.78;;;;;;;12.09;84.67;102515.72;6090451;23;20033;-87
2022/09/21 07:36:11;;;;;;;14.45;7.95;;;;;;;12.62;82.45;102518.47;6089446;23;20038;-85
2022/09/21 07:38:38;;;;;;;10.20;7.68;;;;;;;13.09;80.77;102516.00;6090722;23;20030;-94
2022/09/21 07:41:09;;;;;;;15.57;8.13;;;;;;;13.48;77.71;102513.72;6092054;23;20010;-87
2022/09/21 07:43:34;;;;;;;14.13;7.85;;;;;;;14.09;76.32;102511.44;6089893;23;20017;-86
2022/09/21 07:46:03;;;;;;;10.90;7.43;;;;;;;14.30;74.90;102499.00;6089962;23;20336;-89
2022/09/21 07:48:29;;;;;;;10.40;7.28;;;;;;;14.72;72.56;102502.69;6090785;23;20020;-87
2022/09/21 07:51:00;;;;;;;10.02;7.55;;;;;;;14.90;72.11;102501.91;6090673;23;20497;-89
2022/09/21 07:53:25;;;;;;;9.23;7.57;;;;;;;15.33;71.16;102502.72;6064553;23;20045;-86
2022/09/21 07:55:50;;;;;;;11.07;7.10;;;;;;;15.85;69.72;102500.38;6090435;23;20014;-89
2022/09/21 08:01:05;;;;;;;10.70;6.60;;;;;;;16.73;65.65;102502.41;6090759;23;20126;-89
2022/09/21 08:03:30;;;;;;;10.82;6.35;;;;;;;16.98;64.51;102508.28;6091496;23;20018;-91
2022/09/21 08:05:58;;;;;;;10.38;6.25;;;;;;;17.40;63.17;102509.69;6091966;23;20011;-88
2022/09/21 08:08:24;;;;;;;12.27;6.78;;;;;;;17.99;61.82;102502.03;6090743;23;20112;-90
2022/09/21 08:10:51;;;;;;;9.15;5.93;;;;;;;18.21;58.45;102502.53;6091325;23;20018;-94
2022/09/21 08:13:17;;;;;;;10.60;5.93;;;;;;;18.26;58.46;102495.06;6091126;23;20002;-89
2022/09/21 08:15:42;;;;;;;8.18;5.47;;;;;;;18.67;58.04;102494.50;6089903;23;20109;-90
2022/09/21 08:18:08;;;;;;;8.30;5.90;;;;;;;18.90;55.55;102491.34;6091055;23;20417;-91
2022/09/21 08:20:33;;;;;;;8.15;5.18;;;;;;;19.13;54.37;102503.44;6064743;23;20342;-90
2022/09/21 08:22:59;;;;;;;8.77;5.38;;;;;;;19.40;55.25;102495.50;6090340;23;20041;-89
2022/09/21 08:25:24;;;;;;;8.20;5.32;;;;;;;19.90;54.30;102498.72;6090126;23;20014;-89
2022/09/21 08:27:49;;;;;;;6.78;4.47;;;;;;;20.52;51.70;102500.97;6091018;23;20348;-90
2022/09/21 08:30:15;;;;;;;8.02;4.85;;;;;;;21.01;50.03;102508.50;6091892;23;20445;-88
2022/09/21 08:32:40;;;;;;;5.47;4.07;;;;;;;21.39;47.63;102505.84;6067025;23;20803;-86
2022/09/21 08:35:07;;;;;;;7.05;4.22;;;;;;;21.69;46.94;102513.63;6089755;23;20032;-90
2022/09/21 08:37:34;;;;;;;7.13;4.22;;;;;;;21.96;46.21;102512.66;6090884;23;20009;-83
2022/09/21 08:40:01;;;;;;;6.88;4.00;;;;;;;22.05;44.62;102506.53;6092252;23;20006;-93
2022/09/21 08:42:58;;;;;;;7.75;4.38;;;;;;;22.61;48.78;102509.63;6091386;23;20006;-89
2022/09/21 08:45:31;;;;;;;7.25;4.13;;;;;;;22.94;42.59;102514.34;6090976;23;20066;-87
2022/09/21 08:48:01;;;;;;;6.77;3.53;;;;;;;23.02;41.27;102514.63;6090684;23;20058;-92
2022/09/21 08:50:45;;;;;;;5.82;3.35;;;;;;;23.25;45.36;102506.56;6091087;23;20628;-91
2022/09/21 08:53:18;;;;;;;5.35;3.50;;;;;;;23.67;41.23;102515.91;6065924;23;20006;-93
2022/09/21 08:55:44;;;;;;;6.32;3.13;;;;;;;23.88;37.52;102515.16;6094362;23;20448;-90
2022/09/21 08:58:22;;;;;;;7.35;2.88;;;;;;;24.07;40.17;102507.22;6093418;23;20090;-90
2022/09/21 09:00:53;;;;;;;4.47;2.90;;;;;;;24.23;37.63;102518.56;6092302;23;20006;-94
2022/09/21 09:03:42;;;;;;;7.13;3.42;;;;;;;24.64;39.02;102511.56;6094198;23;20321;-90
2022/09/21 09:07:03;;;;;;;8.15;3.00;;;;;;;25.10;40.86;102518.56;6095480;23;20021;-90
2022/09/21 09:09:53;;;;;;;5.88;2.50;;;;;;;25.27;36.19;102515.25;5988556;24;20012;-88
2022/09/21 09:12:49;;;;;;;5.07;2.42;;;;;;;25.44;36.73;102516.47;5974049;24;20008;-88
2022/09/21 09:15:29;;;;;;;5.95;2.60;;;;;;;25.58;36.82;102529.78;5973761;24;20048;-89
2022/09/21 09:18:13;;;;;;;5.50;2.38;;;;;;;26.19;36.59;102520.72;5975250;24;20013;-89
2022/09/21 09:21:01;;;;;;;3.53;1.90;;;;;;;26.27;32.75;102512.69;5984187;24;20008;-87
2022/09/21 09:23:39;;;;;;;4.55;2.10;;;;;;;26.55;33.92;102515.66;5964590;24;20019;-88
2022/09/21 09:26:10;;;;;;;4.25;1.77;;;;;;;26.79;32.27;102518.78;5997294;23;19996;-88
2022/09/21 09:28:48;;;;;;;5.35;1.90;;;;;;;27.47;32.07;102523.38;6001210;23;20084;-88
2022/09/21 09:31:21;;;;;;;3.88;1.98;;;;;;;27.77;30.46;102530.47;5998670;23;20047;-88
2022/09/21 09:34:13;;;;;;;;;;;;;;;28.82;34.65;102520.91;5985668;24;20550;-87
2022/09/21 09:36:44;;;;;;;5.80;1.98;;;;;;;28.69;29.07;102518.56;5972200;24;19907;-88
2022/09/21 09:39:13;;;;;;;4.82;1.90;;;;;;;29.16;27.70;102527.41;5976481;24;20022;-88
2022/09/21 09:41:57;;;;;;;4.88;2.22;;;;;;;29.26;27.29;102519.94;5977583;24;20608;-88
2022/09/21 09:44:28;;;;;;;6.75;2.00;;;;;;;29.50;28.75;102524.72;5975938;24;20123;-88
2022/09/21 09:47:00;;;;;;;5.55;2.47;;;;;;;28.91;28.08;102522.72;6081195;23;20014;-88
2022/09/21 09:49:31;;;;;;;3.47;1.60;;;;;;;28.82;27.57;102519.03;6092289;23;20006;-87
2022/09/21 09:51:57;;;;;;;4.07;1.70;;;;;;;29.25;27.31;102531.91;6092949;23;20065;-87
2022/09/21 09:54:26;;;;;;;2.95;1.60;;;;;;;29.52;26.16;102527.31;6090959;23;20429;-88
2022/09/21 09:56:53;;;;;;;2.53;1.20;;;;;;;30.25;26.28;102524.97;6091004;23;20069;-88
2022/09/21 09:59:35;;;;;;;3.80;1.55;;;;;;;30.40;27.17;102521.56;6090817;23;20002;-88
2022/09/21 10:02:22;;;;;;;5.18;1.38;;;;;;;31.01;25.48;102523.03;6089854;23;20010;-88
2022/09/21 10:04:59;;;;;;;3.83;1.13;;;;;;;31.19;24.40;102526.47;6089848;23;20002;-87
2022/09/21 10:07:37;;;;;;;4.32;1.05;;;;;;;31.61;24.89;102521.78;6090295;23;20007;-88
2022/09/21 10:10:21;;;;;;;5.05;1.63;;;;;;;31.84;24.04;102522.75;6090188;23;20421;-88
2022/09/21 10:12:47;;;;;;;3.42;1.38;;;;;;;30.62;23.42;102529.16;6090371;23;20018;-88
2022/09/21 10:15:15;;;;;;;3.75;1.35;;;;;;;27.67;26.03;102522.25;6088822;23;20329;-87
2022/09/21 10:17:41;;;;;;;4.28;1.20;;;;;;;25.53;29.57;102536.63;6090921;23;20022;-88
2022/09/21 10:20:15;;;;;;;4.55;1.98;;;;;;;24.60;32.25;102523.72;6090202;23;20013;-89
2022/09/21 10:22:53;;;;;;;4.97;1.70;;;;;;;23.73;33.02;102520.84;6091380;23;20009;-88
2022/09/21 10:25:19;;;;;;;4.43;1.50;;;;;;;24.70;32.83;102516.47;6091329;23;20010;-87
2022/09/21 10:27:48;;;;;;;4.15;1.35;;;;;;;27.73;29.68;102502.56;6092203;23;20041;-88
2022/09/21 10:30:28;;;;;;;3.70;1.58;;;;;;;30.43;27.08;102513.88;6090026;23;20010;-87
2022/09/21 10:32:56;;;;;;;4.10;1.20;;;;;;;28.68;24.98;102509.50;6090067;23;20017;-89
2022/09/21 10:35:21;;;;;;;2.88;0.90;;;;;;;26.43;28.33;102514.00;6091678;23;20138;-88
2022/09/21 10:37:52;;;;;;;3.45;0.80;;;;;;;26.01;26.93;102514.19;6088254;23;20473;-88
2022/09/21 10:40:20;;;;;;;3.75;0.93;;;;;;;27.83;25.41;102512.59;6092681;23;20692;-91
2022/09/21 10:42:52;;;;;;;1.48;0.68;;;;;;;29.12;23.70;102511.44;6068419;23;20007;-89
2022/09/21 10:45:24;;;;;;;2.15;0.80;;;;;;;28.55;23.79;102498.03;6092360;23;20140;-89
2022/09/21 10:47:52;;;;;;;2.60;0.90;;;;;;;27.28;26.41;102505.97;6093595;23;20058;-90
2022/09/21 10:50:38;;;;;;;3.92;0.93;;;;;;;28.57;24.80;102506.13;6095291;23;20010;-86
2022/09/21 10:53:09;;;;;;;3.72;0.80;;;;;;;30.76;24.26;102498.28;6095461;23;20002;-91
2022/09/21 10:55:40;;;;;;;1.02;0.52;;;;;;;31.01;20.51;102503.78;6103650;23;20010;-90
2022/09/21 10:58:11;;;;;;;2.17;0.63;;;;;;;31.43;20.58;102498.06;6102609;23;20006;-85
2022/09/21 11:00:50;;;;;;;2.30;0.80;;;;;;;32.68;22.26;102501.78;6109051;23;20018;-94
2022/09/21 11:03:29;;;;;;;2.92;0.98;;;;;;;33.73;21.24;102506.50;6105748;23;19998;-96
2022/09/21 11:06:04;;;;;;;2.13;0.90;;;;;;;34.91;20.46;102497.91;6113070;23;20451;-96
2022/09/21 11:08:35;;;;;;;2.63;0.98;;;;;;;35.13;17.35;102497.91;6116189;23;20140;-92
2022/09/21 11:11:12;;;;;;;2.50;1.13;;;;;;;35.25;18.81;102499.06;6109535;23;20018;-93
2022/09/21 11:13:59;;;;;;;1.95;1.10;;;;;;;36.22;19.72;102497.25;6098963;23;20472;-92
2022/09/21 11:16:29;;;;;;;6.50;1.33;;;;;;;36.30;16.90;102497.06;6092825;23;20057;-91
2022/09/21 11:19:06;;;;;;;20.83;14.55;;;;;;;36.54;18.41;102495.66;6095546;23;20057;-91
2022/09/21 11:21:45;;;;;;;3.53;1.55;;;;;;;36.91;17.98;102488.59;6098338;23;20006;-92
2022/09/21 11:24:47;;;;;;;4.68;2.22;;;;;;;36.92;18.84;102495.88;6093229;23;20437;-90
2022/09/21 11:27:22;;;;;;;3.00;1.50;;;;;;;36.38;17.53;102491.31;6094215;23;20086;-90
2022/09/21 11:30:01;;;;;;;3.45;1.30;;;;;;;36.19;16.64;102492.97;6095099;23;20002;-91
2022/09/21 11:32:45;;;;;;;4.82;1.25;;;;;;;36.13;16.51;102497.44;6094413;23;20010;-90
2022/09/21 11:35:26;;;;;;;4.57;1.00;;;;;;;35.15;17.70;102499.38;6093731;23;20049;-91
2022/09/21 11:37:51;;;;;;;3.20;1.30;;;;;;;35.17;17.54;102496.44;6093649;23;20010;-92
2022/09/21 11:40:46;;;;;;;2.23;1.00;;;;;;;36.08;18.85;102493.59;6094084;23;20013;-92
2022/09/21 11:43:50;;;;;;;4.35;1.40;;;;;;;36.79;16.89;102482.03;6093512;23;19998;-93